Time;durP1;ratioP1;P1;durP2;ratioP2;P2;SDS_P1;SDS_P2;PMS_P1;PMS_P2;Temp;Humidity;BMP_temperature;BMP_pressure;BME280_temperature;BME280_humidity;BME280_pressure;Samples;Min_cycle;Max_cycle;Signal;HPM_P1;HPM_P2
2024/01/28 00:01:08;;;;;;;8.13;5.13;;;5.80;64.00;7.70;103053.00;;;;5001875;28;20289;-72
2024/01/28 00:03:36;;;;;;;8.10;5.32;;;5.80;63.90;7.70;103052.00;;;;4992466;28;20204;-72
2024/01/28 00:06:05;;;;;;;8.60;4.65;;;5.80;63.90;7.70;103049.00;;;;5009082;28;20203;-72
2024/01/28 00:08:32;;;;;;;7.63;5.22;;;5.80;63.90;7.70;103054.00;;;;5011904;28;20211;-73
2024/01/28 00:10:59;;;;;;;6.82;4.82;;;5.80;63.90;7.70;103049.00;;;;5006931;28;20228;-72
2024/01/28 00:13:26;;;;;;;8.40;5.80;;;5.80;63.90;7.70;103047.00;;;;5009420;28;20777;-72
2024/01/28 00:15:53;;;;;;;9.43;5.70;;;5.80;63.90;7.70;103033.00;;;;5010805;28;20231;-72
2024/01/28 00:18:21;;;;;;;9.57;5.40;;;5.80;63.90;7.70;103036.00;;;;5014987;28;20205;-72
2024/01/28 00:20:48;;;;;;;9.13;6.10;;;5.80;63.90;7.60;103036.00;;;;5007329;28;20231;-73
2024/01/28 00:23:16;;;;;;;9.10;5.75;;;5.80;63.90;7.60;103045.00;;;;5004103;28;20197;-72
2024/01/28 00:25:43;;;;;;;10.20;5.60;;;5.70;63.80;7.60;103037.00;;;;5007418;28;20673;-73
2024/01/28 00:28:11;;;;;;;9.98;6.15;;;5.70;63.80;7.60;103043.00;;;;5000808;28;20205;-73
2024/01/28 00:30:38;;;;;;;9.35;5.57;;;5.70;63.80;7.60;103033.00;;;;5010856;28;20608;-72
2024/01/28 00:33:05;;;;;;;8.60;5.85;;;5.70;63.80;7.60;103033.00;;;;5015159;28;20197;-72
2024/01/28 00:35:34;;;;;;;9.82;5.88;;;5.70;63.70;7.60;103030.00;;;;5010115;28;20564;-73
2024/01/28 00:38:01;;;;;;;9.45;5.55;;;5.70;63.70;7.50;103024.00;;;;5002893;28;20201;-73
2024/01/28 00:40:29;;;;;;;8.00;4.90;;;5.60;63.70;7.50;103032.00;;;;5013367;28;20212;-72
2024/01/28 00:42:56;;;;;;;10.15;6.15;;;5.60;63.70;7.50;103035.00;;;;5010728;28;20200;-73
2024/01/28 00:45:23;;;;;;;7.97;5.00;;;5.60;63.70;7.50;103036.00;;;;4995259;28;20284;-73
2024/01/28 00:47:50;;;;;;;9.27;5.32;;;5.60;63.70;7.40;103035.00;;;;4995615;28;20202;-73
2024/01/28 00:50:19;;;;;;;7.50;5.30;;;5.50;63.70;7.40;103042.00;;;;5002042;28;20225;-76
2024/01/28 00:52:47;;;;;;;7.38;4.75;;;5.50;63.70;7.40;103042.00;;;;4995253;28;20222;-74
2024/01/28 00:55:14;;;;;;;9.60;5.13;;;5.50;63.80;7.40;103031.00;;;;4998789;28;20227;-73
2024/01/28 00:57:43;;;;;;;10.60;5.60;;;5.50;63.90;7.40;103025.00;;;;4997796;28;20208;-73
2024/01/28 01:00:12;;;;;;;6.72;5.05;;;5.50;63.90;7.40;103023.00;;;;4996435;28;20206;-73
2024/01/28 01:02:39;;;;;;;8.50;4.60;;;5.40;63.90;7.30;103021.00;;;;5014192;28;20749;-73
2024/01/28 01:05:07;;;;;;;8.13;5.00;;;5.40;63.90;7.30;103010.00;;;;5014238;28;20190;-73
2024/01/28 01:07:34;;;;;;;6.45;4.15;;;5.40;63.90;7.30;103018.00;;;;5011259;28;20607;-73
2024/01/28 01:10:01;;;;;;;6.70;5.35;;;5.40;63.90;7.30;103007.00;;;;5014054;28;20231;-76
2024/01/28 01:12:28;;;;;;;6.88;4.30;;;5.40;64.70;7.30;103010.00;;;;5007021;28;20292;-73
2024/01/28 01:14:56;;;;;;;8.05;5.00;;;5.40;63.90;7.30;103008.00;;;;5014563;28;20193;-73
2024/01/28 01:17:23;;;;;;;7.80;5.70;;;5.40;64.00;7.30;103007.00;;;;5014370;28;20233;-73
2024/01/28 01:19:50;;;;;;;9.52;5.63;;;5.40;63.90;7.30;103007.00;;;;5013070;28;20662;-73
2024/01/28 01:22:17;;;;;;;8.85;5.45;;;5.30;63.90;7.30;103004.00;;;;5005400;28;20226;-73
2024/01/28 01:24:44;;;;;;;9.65;5.55;;;5.30;63.90;7.20;103002.00;;;;4994986;28;20548;-73
2024/01/28 01:27:11;;;;;;;9.43;5.13;;;5.30;63.90;7.20;102997.00;;;;4994227;28;20663;-74
2024/01/28 01:29:38;;;;;;;10.10;5.72;;;5.30;64.70;7.20;102994.00;;;;4997461;28;20217;-74
2024/01/28 01:32:07;;;;;;;10.43;5.53;;;5.30;64.00;7.20;102982.00;;;;5005803;28;20223;-73
2024/01/28 01:34:34;;;;;;;6.03;4.55;;;5.30;64.10;7.20;102983.00;;;;5006080;28;20224;-73
2024/01/28 01:37:01;;;;;;;7.72;5.20;;;5.30;64.10;7.20;102990.00;;;;5009592;28;20580;-74
2024/01/28 01:39:28;;;;;;;7.18;4.90;;;5.30;64.10;7.20;102987.00;;;;5006169;28;20205;-74
2024/01/28 01:41:55;;;;;;;9.63;5.30;;;5.30;64.20;7.20;102988.00;;;;5012571;28;20193;-73
2024/01/28 01:44:22;;;;;;;7.50;4.50;;;5.30;64.90;7.20;102989.00;;;;5013385;28;20197;-74
2024/01/28 01:46:50;;;;;;;7.38;4.88;;;5.30;64.30;7.20;102987.00;;;;5013221;28;20207;-73
2024/01/28 01:49:18;;;;;;;8.77;4.88;;;5.30;64.30;7.10;102973.00;;;;5014062;28;20292;-73
2024/01/28 01:51:45;;;;;;;7.78;4.72;;;5.30;64.40;7.20;102981.00;;;;5009012;28;20226;-73
2024/01/28 01:54:13;;;;;;;7.25;4.80;;;5.30;64.40;7.20;102980.00;;;;5000946;28;20219;-73
2024/01/28 01:56:40;;;;;;;10.93;5.18;;;5.30;64.40;7.10;102978.00;;;;5013977;28;20204;-73
2024/01/28 01:59:07;;;;;;;6.55;4.60;;;5.30;64.40;7.20;102983.00;;;;5008056;28;20655;-73
2024/01/28 02:01:35;;;;;;;11.57;5.03;;;5.30;64.40;7.20;102978.00;;;;5006683;28;20272;-75
2024/01/28 02:04:02;;;;;;;6.35;4.28;;;5.20;64.40;7.10;102975.00;;;;5008082;28;20293;-73
2024/01/28 02:06:31;;;;;;;7.55;4.88;;;5.30;64.40;7.10;102970.00;;;;5012430;28;20232;-73
2024/01/28 02:08:58;;;;;;;10.85;4.93;;;5.30;65.00;7.10;102964.00;;;;4993436;28;20712;-73
2024/01/28 02:11:25;;;;;;;8.00;4.82;;;5.20;64.30;7.10;102970.00;;;;4993852;28;20335;-73
2024/01/28 02:13:54;;;;;;;11.20;5.18;;;5.30;64.30;7.10;102966.00;;;;4993828;28;20197;-73
2024/01/28 02:16:21;;;;;;;7.28;5.05;;;5.20;64.30;7.10;102956.00;;;;5001602;28;20235;-74
2024/01/28 02:18:48;;;;;;;6.95;4.60;;;5.20;64.30;7.10;102952.00;;;;5008589;28;20197;-73
2024/01/28 02:21:15;;;;;;;8.93;5.10;;;5.20;64.40;7.10;102946.00;;;;5005108;28;20777;-73
2024/01/28 02:23:43;;;;;;;8.95;5.05;;;5.20;64.40;7.10;102949.00;;;;5012550;28;20201;-73
2024/01/28 02:26:10;;;;;;;8.23;4.60;;;5.20;64.40;7.10;102952.00;;;;5011895;28;20197;-73
2024/01/28 02:28:37;;;;;;;6.72;5.32;;;5.20;64.50;7.10;102942.00;;;;4997550;28;20296;-73
2024/01/28 02:31:05;;;;;;;11.32;5.03;;;5.20;64.50;7.10;102942.00;;;;4992855;28;20228;-73
2024/01/28 02:33:32;;;;;;;9.80;4.97;;;5.20;64.60;7.10;102932.00;;;;5002850;28;20206;-73
2024/01/28 02:35:59;;;;;;;7.57;5.03;;;5.20;64.60;7.10;102937.00;;;;5011852;28;20223;-73
2024/01/28 02:38:26;;;;;;;11.10;5.32;;;5.20;64.70;7.10;102941.00;;;;5011283;28;20201;-73
2024/01/28 02:40:55;;;;;;;9.48;5.45;;;5.20;64.80;7.10;102939.00;;;;4992625;28;20695;-73
2024/01/28 02:43:22;;;;;;;8.38;4.75;;;5.20;64.80;7.10;102939.00;;;;4997122;28;20652;-73
2024/01/28 02:45:49;;;;;;;9.70;5.22;;;5.20;64.90;7.10;102937.00;;;;4995787;28;20208;-73
2024/01/28 02:48:16;;;;;;;8.93;4.97;;;5.20;64.90;7.10;102937.00;;;;5003526;28;20701;-73
2024/01/28 02:50:43;;;;;;;7.82;5.28;;;5.20;64.90;7.10;102944.00;;;;4993287;28;20225;-73
2024/01/28 02:53:10;;;;;;;9.07;4.97;;;5.20;64.80;7.10;102935.00;;;;4994792;28;20208;-73
2024/01/28 02:55:37;;;;;;;7.45;4.93;;;5.20;64.80;7.10;102939.00;;;;5005739;28;20193;-73
2024/01/28 02:58:06;;;;;;;9.13;4.60;;;5.20;64.70;7.00;102938.00;;;;5012604;28;20201;-73
2024/01/28 03:00:35;;;;;;;7.95;5.03;;;5.20;64.70;7.10;102938.00;;;;5011107;28;20205;-74
2024/01/28 03:03:04;;;;;;;9.48;4.93;;;5.20;64.70;7.10;102944.00;;;;4993298;28;20232;-73
2024/01/28 03:05:31;;;;;;;9.23;5.22;;;5.20;64.70;7.10;102939.00;;;;5000172;28;20193;-73
2024/01/28 03:07:58;;;;;;;7.63;5.43;;;5.20;64.80;7.00;102941.00;;;;5012908;28;20204;-73
2024/01/28 03:10:25;;;;;;;7.15;4.85;;;5.20;64.80;7.10;102933.00;;;;5012110;28;20319;-73
2024/01/28 03:12:52;;;;;;;6.55;4.65;;;5.20;64.80;7.10;102938.00;;;;5000512;28;20229;-73
2024/01/28 03:15:20;;;;;;;8.57;5.47;;;5.20;64.80;7.00;102927.00;;;;5010807;28;20202;-73
2024/01/28 03:17:47;;;;;;;7.10;5.15;;;5.10;64.80;7.10;102932.00;;;;5012205;28;20564;-73
2024/01/28 03:20:17;;;;;;;9.43;4.38;;;5.20;64.80;7.00;102924.00;;;;5011256;28;20201;-73
2024/01/28 03:22:44;;;;;;;7.68;5.05;;;5.10;64.70;7.00;102934.00;;;;5008698;28;20193;-73
2024/01/28 03:25:12;;;;;;;9.93;5.22;;;5.10;64.60;7.00;102926.00;;;;4992286;28;20193;-73
2024/01/28 03:27:39;;;;;;;7.25;4.30;;;5.10;64.60;7.00;102920.00;;;;4992662;28;20757;-74
2024/01/28 03:30:08;;;;;;;8.00;4.55;;;5.10;64.70;7.00;102917.00;;;;5009878;28;20260;-73
2024/01/28 03:32:37;;;;;;;11.10;4.78;;;5.10;64.60;7.00;102911.00;;;;5005820;28;20209;-73
2024/01/28 03:35:05;;;;;;;7.80;4.85;;;5.10;64.60;7.00;102920.00;;;;5009350;28;20229;-73
2024/01/28 03:37:32;;;;;;;8.10;4.55;;;5.10;64.60;7.00;102917.00;;;;4992647;28;20229;-73
2024/01/28 03:39:59;;;;;;;10.15;4.95;;;5.10;64.60;7.00;102915.00;;;;4992582;28;20201;-73
2024/01/28 03:42:26;;;;;;;6.20;4.80;;;5.10;64.60;7.00;102919.00;;;;4992531;28;20664;-74
2024/01/28 03:44:53;;;;;;;7.97;4.95;;;5.10;64.70;7.00;102907.00;;;;4992360;28;20289;-73
2024/01/28 03:47:20;;;;;;;8.95;4.90;;;5.10;64.70;7.00;102908.00;;;;5011798;28;20201;-73
2024/01/28 03:49:48;;;;;;;10.20;4.88;;;5.00;64.60;7.00;102905.00;;;;5003054;28;20201;-73
2024/01/28 03:52:16;;;;;;;8.30;5.10;;;5.10;64.60;7.00;102908.00;;;;4997859;28;20263;-73
2024/01/28 03:54:43;;;;;;;8.20;5.03;;;5.10;64.70;7.00;102896.00;;;;5014066;28;20205;-73
2024/01/28 03:57:10;;;;;;;7.85;4.60;;;5.00;64.60;7.00;102890.00;;;;5017507;28;20211;-73
2024/01/28 03:59:40;;;;;;;6.45;4.18;;;5.00;64.60;6.90;102882.00;;;;5018224;28;20696;-73
2024/01/28 04:02:08;;;;;;;8.23;5.18;;;5.00;64.60;6.90;102881.00;;;;5007773;28;20225;-73
2024/01/28 04:04:35;;;;;;;6.18;4.50;;;5.00;64.50;6.90;102884.00;;;;5017745;28;20592;-73
2024/01/28 04:07:04;;;;;;;9.50;4.05;;;5.00;64.50;6.90;102879.00;;;;5000758;28;20599;-74
2024/01/28 04:09:32;;;;;;;8.25;4.53;;;5.00;64.50;6.90;102881.00;;;;4998538;28;20204;-73
2024/01/28 04:11:59;;;;;;;6.93;4.57;;;5.00;65.20;6.90;102881.00;;;;4998244;28;20694;-73
2024/01/28 04:14:26;;;;;;;8.95;5.32;;;5.00;64.60;6.90;102867.00;;;;5000892;28;20285;-73
2024/01/28 04:16:53;;;;;;;9.82;4.82;;;5.00;64.60;6.90;102871.00;;;;5009098;28;20231;-74
2024/01/28 04:19:20;;;;;;;5.72;4.38;;;5.00;64.60;6.90;102867.00;;;;5017314;28;20696;-73
2024/01/28 04:21:47;;;;;;;6.65;4.45;;;5.00;64.70;6.90;102865.00;;;;5004824;28;20204;-74
2024/01/28 04:24:16;;;;;;;8.82;5.22;;;5.00;64.60;6.90;102859.00;;;;5006392;28;20197;-73
2024/01/28 04:26:43;;;;;;;7.07;4.95;;;5.00;64.60;6.90;102857.00;;;;5010612;28;20205;-74
2024/01/28 04:29:10;;;;;;;8.38;4.53;;;5.00;64.60;6.90;102859.00;;;;5014048;28;20201;-74
2024/01/28 04:31:42;;;;;;;9.15;4.70;;;5.00;64.60;6.80;102859.00;;;;5007449;28;20556;-73
2024/01/28 04:34:09;;;;;;;8.50;4.43;;;5.00;64.70;6.90;102856.00;;;;5009452;28;20193;-73
2024/01/28 04:36:37;;;;;;;9.65;4.45;;;5.00;64.70;6.90;102849.00;;;;5017218;28;20248;-73
2024/01/28 04:39:05;;;;;;;9.52;5.00;;;5.00;64.70;6.90;102858.00;;;;5016874;28;20812;-73
2024/01/28 04:41:34;;;;;;;8.25;4.60;;;5.00;64.70;6.90;102849.00;;;;5018663;28;20189;-73
2024/01/28 04:44:01;;;;;;;9.23;4.80;;;4.90;64.70;6.90;102855.00;;;;5010270;28;20655;-73
2024/01/28 04:46:29;;;;;;;10.73;4.65;;;5.00;64.70;6.90;102850.00;;;;5017864;28;20200;-73
2024/01/28 04:48:56;;;;;;;7.80;4.50;;;4.90;64.70;6.90;102850.00;;;;5016012;28;20283;-73
2024/01/28 04:51:23;;;;;;;9.25;4.90;;;4.90;64.70;6.90;102847.00;;;;5018047;28;20690;-73
2024/01/28 04:53:50;;;;;;;7.03;4.35;;;4.90;64.70;6.80;102841.00;;;;5016240;28;20197;-73
2024/01/28 04:56:17;;;;;;;7.13;4.28;;;4.90;64.80;6.90;102839.00;;;;5007870;28;20190;-73
2024/01/28 04:58:45;;;;;;;9.13;4.82;;;5.00;64.80;6.90;102832.00;;;;5007629;28;20207;-73
2024/01/28 05:01:12;;;;;;;7.45;4.38;;;4.90;64.90;6.90;102833.00;;;;5015615;28;20201;-73
2024/01/28 05:03:39;;;;;;;11.45;4.72;;;5.00;65.00;6.90;102834.00;;;;5003177;28;20558;-73
2024/01/28 05:06:07;;;;;;;8.38;4.45;;;4.90;64.90;6.90;102839.00;;;;5014385;28;20203;-73
2024/01/28 05:08:35;;;;;;;10.90;5.78;;;4.90;64.90;6.90;102833.00;;;;5011841;28;20204;-73
2024/01/28 05:11:02;;;;;;;8.63;4.55;;;4.90;64.90;6.90;102831.00;;;;5013440;28;20225;-72
2024/01/28 05:13:29;;;;;;;9.20;4.50;;;5.00;64.90;6.90;102827.00;;;;5011564;28;20201;-73
2024/01/28 05:15:57;;;;;;;11.93;4.55;;;5.00;64.90;6.90;102823.00;;;;5002312;28;20276;-73
2024/01/28 05:18:25;;;;;;;7.57;3.97;;;5.00;64.80;6.80;102821.00;;;;5002183;28;20280;-73
2024/01/28 05:20:53;;;;;;;7.00;4.20;;;5.00;64.90;6.90;102820.00;;;;5014464;28;20212;-73
2024/01/28 05:23:19;;;;;;;7.03;4.30;;;4.90;64.80;6.90;102822.00;;;;5012087;28;20201;-73
2024/01/28 05:25:46;;;;;;;6.68;4.53;;;5.00;64.90;6.90;102827.00;;;;5014294;28;20211;-73
2024/01/28 05:28:14;;;;;;;6.65;4.72;;;4.90;64.90;6.90;102831.00;;;;5011183;28;20200;-73
2024/01/28 05:30:41;;;;;;;8.45;4.40;;;5.00;65.00;6.90;102820.00;;;;4994093;28;20202;-73
2024/01/28 05:33:10;;;;;;;9.32;4.63;;;4.90;64.90;6.90;102814.00;;;;4994200;28;20209;-73
2024/01/28 05:35:37;;;;;;;6.93;4.05;;;5.00;65.00;6.90;102804.00;;;;4994658;28;20592;-73
2024/01/28 05:38:04;;;;;;;7.47;5.00;;;5.00;65.00;6.90;102801.00;;;;4998150;28;20193;-73
2024/01/28 05:40:31;;;;;;;5.57;3.85;;;5.00;65.00;6.90;102787.00;;;;5014210;28;20197;-73
2024/01/28 05:42:58;;;;;;;6.47;4.75;;;5.00;65.00;6.90;102789.00;;;;5013031;28;20197;-73
2024/01/28 05:45:25;;;;;;;9.25;4.82;;;5.00;65.10;6.90;102773.00;;;;5012394;28;20287;-73
2024/01/28 05:47:52;;;;;;;7.22;4.53;;;5.00;65.10;6.90;102776.00;;;;4995782;28;20289;-73
2024/01/28 05:50:20;;;;;;;7.25;4.38;;;5.00;65.10;6.90;102780.00;;;;5012548;28;20201;-74
2024/01/28 05:52:47;;;;;;;8.35;4.97;;;5.00;65.10;6.90;102774.00;;;;4994143;28;20229;-73
2024/01/28 05:55:15;;;;;;;8.45;4.75;;;5.00;65.10;6.90;102768.00;;;;4994467;28;20663;-73
2024/01/28 05:57:42;;;;;;;9.00;4.50;;;5.00;65.10;6.90;102759.00;;;;4994252;28;20197;-73
2024/01/28 06:00:11;;;;;;;7.95;4.68;;;5.00;65.00;6.90;102747.00;;;;5009062;28;20663;-73
2024/01/28 06:02:38;;;;;;;8.07;4.55;;;5.00;65.00;6.90;102743.00;;;;5013533;28;20209;-73
2024/01/28 06:05:06;;;;;;;8.95;5.15;;;5.00;65.00;6.90;102746.00;;;;4996668;28;20217;-73
2024/01/28 06:07:34;;;;;;;8.73;4.28;;;5.00;65.00;6.90;102746.00;;;;4996790;28;20304;-73
2024/01/28 06:10:04;;;;;;;5.72;3.85;;;5.00;65.00;6.90;102758.00;;;;5007274;28;20201;-73
2024/01/28 06:12:32;;;;;;;6.13;4.40;;;5.00;65.00;6.90;102751.00;;;;4993396;28;20292;-72
2024/01/28 06:15:04;;;;;;;7.07;4.25;;;5.00;64.90;6.90;102751.00;;;;4992931;28;20206;-73
2024/01/28 06:17:31;;;;;;;8.48;4.53;;;5.00;64.90;6.90;102752.00;;;;4997623;28;20773;-73
2024/01/28 06:20:01;;;;;;;7.65;4.57;;;5.00;64.90;6.90;102752.00;;;;5013235;28;20678;-72
2024/01/28 06:22:28;;;;;;;7.55;4.82;;;5.00;64.90;6.90;102757.00;;;;5009727;28;20193;-73
2024/01/28 06:24:56;;;;;;;8.02;4.68;;;5.00;64.90;6.90;102753.00;;;;4996325;28;20678;-73
2024/01/28 06:27:23;;;;;;;6.82;4.68;;;5.00;64.80;6.90;102753.00;;;;4997351;28;20202;-73
2024/01/28 06:29:50;;;;;;;7.15;4.45;;;5.10;64.90;6.90;102755.00;;;;5008620;28;20212;-72
2024/01/28 06:32:18;;;;;;;6.80;4.43;;;5.10;64.90;6.90;102747.00;;;;4996298;28;20313;-73
2024/01/28 06:34:45;;;;;;;6.47;4.57;;;5.10;64.90;6.90;102725.00;;;;4994402;28;20717;-73
2024/01/28 06:37:12;;;;;;;9.02;4.70;;;5.10;64.80;6.90;102743.00;;;;4994577;28;20190;-73
2024/01/28 06:39:39;;;;;;;7.63;5.00;;;5.10;64.80;6.90;102741.00;;;;4992810;28;20197;-72
2024/01/28 06:42:10;;;;;;;9.90;4.60;;;5.10;65.50;6.90;102739.00;;;;5007573;28;20197;-73
2024/01/28 06:44:38;;;;;;;6.75;4.30;;;5.10;64.80;6.90;102741.00;;;;5003064;28;20189;-72
2024/01/28 06:47:07;;;;;;;6.55;4.65;;;5.10;64.80;6.90;102739.00;;;;5012835;28;20250;-72
2024/01/28 06:49:34;;;;;;;6.10;4.07;;;5.10;64.80;7.00;102739.00;;;;5004771;28;20228;-72
2024/01/28 06:52:01;;;;;;;9.65;4.45;;;5.10;64.80;7.00;102727.00;;;;5008956;28;20225;-73
2024/01/28 06:54:28;;;;;;;6.70;4.15;;;5.10;64.70;7.00;102727.00;;;;5002341;28;20294;-72
2024/01/28 06:56:55;;;;;;;6.53;4.03;;;5.10;64.70;7.00;102728.00;;;;4992966;28;20292;-73
2024/01/28 06:59:24;;;;;;;7.40;4.32;;;5.10;64.70;7.00;102729.00;;;;5002631;28;20296;-73
2024/01/28 07:01:51;;;;;;;8.55;4.18;;;5.10;64.70;7.00;102726.00;;;;5009579;28;20205;-72
2024/01/28 07:04:18;;;;;;;8.35;5.25;;;5.10;64.70;7.00;102730.00;;;;5006977;28;20201;-73
2024/01/28 07:06:45;;;;;;;8.88;4.43;;;5.10;64.70;7.00;102728.00;;;;4993027;28;20281;-73
2024/01/28 07:09:13;;;;;;;7.10;4.57;;;5.10;64.70;7.00;102736.00;;;;5004907;28;20209;-73
2024/01/28 07:11:40;;;;;;;8.10;4.85;;;5.10;64.60;7.00;102738.00;;;;5003878;28;20252;-73
2024/01/28 07:14:07;;;;;;;7.15;4.30;;;5.10;65.30;7.00;102738.00;;;;5008151;28;20577;-73
2024/01/28 07:16:35;;;;;;;8.55;4.60;;;5.10;64.70;7.00;102730.00;;;;5002925;28;20227;-73
2024/01/28 07:19:03;;;;;;;8.15;4.82;;;5.10;64.70;7.00;102733.00;;;;5002745;28;20201;-73
2024/01/28 07:21:30;;;;;;;8.27;4.57;;;5.10;64.70;7.00;102737.00;;;;4996003;28;20288;-73
2024/01/28 07:23:57;;;;;;;7.38;4.38;;;5.10;64.60;7.00;102739.00;;;;5002050;28;20777;-73
2024/01/28 07:26:24;;;;;;;8.38;5.13;;;5.10;64.70;7.00;102747.00;;;;5010309;28;20666;-73
2024/01/28 07:28:51;;;;;;;10.23;4.97;;;5.10;64.60;7.00;102743.00;;;;5001778;28;20655;-72
2024/01/28 07:31:18;;;;;;;7.90;5.55;;;5.10;64.60;7.00;102751.00;;;;5004807;28;20208;-72
2024/01/28 07:33:48;;;;;;;6.50;4.20;;;5.10;64.60;7.00;102758.00;;;;4992015;28;20280;-73
2024/01/28 07:36:16;;;;;;;8.50;4.82;;;5.10;64.60;7.00;102748.00;;;;5004211;28;21915;-72
2024/01/28 07:38:44;;;;;;;9.55;5.40;;;5.10;64.50;7.00;102744.00;;;;5000091;28;20292;-72
2024/01/28 07:41:14;;;;;;;10.35;4.63;;;5.10;64.50;7.00;102740.00;;;;4995270;28;20197;-73
2024/01/28 07:43:41;;;;;;;8.35;5.30;;;5.10;64.50;7.00;102739.00;;;;4992963;28;20205;-72
2024/01/28 07:46:09;;;;;;;7.00;5.53;;;5.10;64.50;7.00;102739.00;;;;4996224;28;20202;-74
2024/01/28 07:48:36;;;;;;;9.65;6.22;;;5.00;64.40;7.00;102738.00;;;;4991168;28;20201;-73
2024/01/28 07:51:05;;;;;;;8.98;5.10;;;5.00;64.50;7.00;102736.00;;;;5001509;28;20205;-73
2024/01/28 07:53:32;;;;;;;6.93;4.40;;;5.10;64.50;7.00;102732.00;;;;5005373;28;20710;-73
2024/01/28 07:56:00;;;;;;;9.15;5.15;;;5.10;64.60;7.00;102725.00;;;;5009227;28;20651;-73
2024/01/28 07:58:27;;;;;;;9.68;5.53;;;5.10;64.60;7.10;102727.00;;;;5010140;28;20215;-73
2024/01/28 08:00:54;;;;;;;7.07;4.78;;;5.10;64.60;7.10;102723.00;;;;5005121;28;20196;-73
2024/01/28 08:03:22;;;;;;;7.90;5.03;;;5.10;64.60;7.10;102717.00;;;;5002554;28;20203;-72
2024/01/28 08:05:49;;;;;;;8.40;4.72;;;5.10;64.60;7.10;102725.00;;;;5003709;28;20785;-73
2024/01/28 08:08:17;;;;;;;8.77;5.63;;;5.10;64.70;7.10;102724.00;;;;5000717;28;20201;-73
2024/01/28 08:10:44;;;;;;;8.85;5.75;;;5.10;64.70;7.20;102720.00;;;;5011921;28;20207;-73
2024/01/28 08:13:11;;;;;;;9.95;5.82;;;5.10;64.70;7.20;102717.00;;;;5004252;28;20296;-73
2024/01/28 08:15:38;;;;;;;11.98;5.90;;;5.20;64.80;7.20;102722.00;;;;5003582;28;20236;-72
2024/01/28 08:18:06;;;;;;;7.90;5.00;;;5.20;64.80;7.20;102713.00;;;;5001677;28;20208;-73
2024/01/28 08:20:33;;;;;;;12.65;5.80;;;5.20;64.80;7.30;102711.00;;;;4996478;28;20268;-72
2024/01/28 08:23:00;;;;;;;9.32;5.10;;;5.20;64.80;7.30;102713.00;;;;5007147;28;20301;-72
2024/01/28 08:25:28;;;;;;;6.68;4.97;;;5.30;64.90;7.30;102715.00;;;;5005937;28;20201;-72
2024/01/28 08:27:56;;;;;;;7.18;4.45;;;5.30;64.90;7.30;102699.00;;;;5011709;28;20292;-73
2024/01/28 08:30:23;;;;;;;9.30;5.00;;;5.30;64.90;7.40;102700.00;;;;5002547;28;20674;-72
2024/01/28 08:32:51;;;;;;;8.55;4.68;;;5.40;64.90;7.40;102698.00;;;;4998284;28;20233;-72
2024/01/28 08:35:19;;;;;;;8.63;4.93;;;5.40;64.80;7.40;102698.00;;;;5011042;28;20716;-73
2024/01/28 08:37:46;;;;;;;6.88;4.35;;;5.40;64.90;7.50;102695.00;;;;5012296;28;20241;-72
2024/01/28 08:40:13;;;;;;;5.57;4.18;;;5.40;64.80;7.50;102687.00;;;;5014280;28;20666;-72
2024/01/28 08:42:42;;;;;;;7.00;4.63;;;5.50;64.90;7.50;102695.00;;;;5015165;28;20284;-72
2024/01/28 08:45:10;;;;;;;5.55;4.30;;;5.50;64.90;7.60;102693.00;;;;5015547;28;20189;-72
2024/01/28 08:47:37;;;;;;;5.30;4.00;;;5.60;64.90;7.60;102693.00;;;;5015185;28;20197;-73
2024/01/28 08:50:05;;;;;;;8.55;4.72;;;5.60;64.80;7.60;102697.00;;;;5015156;28;20529;-72
2024/01/28 08:52:32;;;;;;;16.85;5.22;;;5.70;64.90;7.70;102701.00;;;;5011357;28;20227;-72
2024/01/28 08:54:59;;;;;;;6.05;4.57;;;5.70;64.80;7.70;102692.00;;;;4999701;28;20205;-74
2024/01/28 08:57:26;;;;;;;6.82;4.35;;;5.70;64.50;7.70;102691.00;;;;5009727;28;20197;-72
2024/01/28 08:59:55;;;;;;;5.22;3.90;;;5.80;64.80;7.70;102689.00;;;;5006420;28;20635;-72
2024/01/28 09:02:22;;;;;;;8.38;4.40;;;5.80;64.70;7.80;102691.00;;;;5005564;28;20193;-72
2024/01/28 09:04:49;;;;;;;6.90;4.07;;;5.80;64.70;7.80;102682.00;;;;5002643;28;20197;-72
2024/01/28 09:07:16;;;;;;;6.43;4.32;;;5.90;64.80;7.80;102687.00;;;;5012501;28;20200;-73
2024/01/28 09:09:43;;;;;;;6.75;4.20;;;5.90;64.70;7.90;102686.00;;;;5014489;28;20212;-72
2024/01/28 09:12:10;;;;;;;7.78;4.00;;;6.00;64.80;7.90;102685.00;;;;5014771;28;20225;-73
2024/01/28 09:14:38;;;;;;;9.40;4.55;;;6.00;64.70;7.90;102682.00;;;;5000175;28;20682;-72
2024/01/28 09:17:06;;;;;;;7.05;4.03;;;6.00;64.60;8.00;102681.00;;;;5012803;28;20232;-73
2024/01/28 09:19:33;;;;;;;8.02;4.53;;;6.10;65.40;8.00;102679.00;;;;5014472;28;20189;-73
2024/01/28 09:22:00;;;;;;;7.88;4.47;;;6.10;64.60;8.10;102686.00;;;;5014489;28;20193;-73
2024/01/28 09:24:27;;;;;;;6.72;4.38;;;6.20;64.70;8.10;102691.00;;;;5014631;28;20724;-72
2024/01/28 09:26:54;;;;;;;7.78;4.25;;;6.20;64.60;8.20;102684.00;;;;5011473;28;20249;-73
2024/01/28 09:29:22;;;;;;;5.88;3.67;;;6.20;64.60;8.20;102685.00;;;;5014536;28;20299;-73
2024/01/28 09:31:49;;;;;;;8.23;5.05;;;6.30;64.70;8.30;102686.00;;;;5014232;28;20193;-72
2024/01/28 09:34:18;;;;;;;5.72;3.97;;;6.40;64.70;8.30;102675.00;;;;5013213;28;20205;-72
2024/01/28 09:36:45;;;;;;;6.13;4.55;;;6.40;64.60;8.40;102672.00;;;;5014378;28;20228;-73
2024/01/28 09:39:12;;;;;;;6.63;4.28;;;6.50;64.60;8.50;102671.00;;;;5013930;28;20235;-72
2024/01/28 09:41:48;;;;;;;10.40;4.95;;;6.50;64.60;8.50;102672.00;;;;5013964;28;20239;-73
2024/01/28 09:44:16;;;;;;;9.52;4.25;;;6.60;64.60;8.60;102664.00;;;;5013700;28;20219;-73
2024/01/28 09:46:45;;;;;;;6.43;4.40;;;6.60;64.60;8.70;102666.00;;;;5014438;28;20189;-73
2024/01/28 09:49:14;;;;;;;8.20;4.40;;;6.70;64.50;8.70;102671.00;;;;5013320;28;20663;-73
2024/01/28 09:51:43;;;;;;;5.38;4.05;;;6.80;64.50;8.80;102676.00;;;;5014119;28;20656;-73
2024/01/28 09:54:12;;;;;;;8.52;3.70;;;6.80;64.50;8.80;102670.00;;;;5007156;28;20225;-73
2024/01/28 09:56:42;;;;;;;9.10;5.20;;;6.90;64.40;8.90;102669.00;;;;4994409;28;20229;-73
2024/01/28 09:59:11;;;;;;;9.15;4.97;;;6.90;64.30;8.90;102672.00;;;;4997252;28;20194;-73
2024/01/28 10:01:42;;;;;;;7.25;3.75;;;7.00;64.20;9.00;102662.00;;;;5013709;28;20291;-72
2024/01/28 10:04:10;;;;;;;7.10;4.47;;;7.00;64.20;9.00;102666.00;;;;5012538;28;20701;-73
2024/01/28 10:06:37;;;;;;;5.70;3.65;;;7.10;64.10;9.10;102661.00;;;;5004386;28;20220;-72
2024/01/28 10:09:06;;;;;;;5.20;3.55;;;7.10;64.10;9.10;102657.00;;;;5010808;28;20667;-74
2024/01/28 10:11:34;;;;;;;5.85;3.92;;;7.20;64.10;9.20;102654.00;;;;5006468;28;20201;-73
2024/01/28 10:14:01;;;;;;;7.78;4.38;;;7.20;64.00;9.20;102658.00;;;;5000400;28;20598;-73
2024/01/28 10:16:32;;;;;;;6.68;4.15;;;7.30;63.90;9.20;102652.00;;;;5001453;28;20303;-72
2024/01/28 10:19:00;;;;;;;5.68;3.50;;;7.40;63.90;9.30;102644.00;;;;5011959;28;20267;-72
2024/01/28 10:21:27;;;;;;;8.60;4.20;;;7.40;63.80;9.40;102633.00;;;;5007755;28;20193;-72
2024/01/28 10:23:55;;;;;;;6.75;3.75;;;7.50;63.80;9.40;102639.00;;;;4994486;28;20216;-72
2024/01/28 10:26:24;;;;;;;6.82;4.30;;;7.50;63.70;9.50;102626.00;;;;4996037;28;20193;-72
2024/01/28 10:28:52;;;;;;;6.03;3.78;;;7.60;63.60;9.50;102633.00;;;;4999987;28;20442;-72
2024/01/28 10:31:23;;;;;;;5.68;3.85;;;7.70;63.70;9.60;102627.00;;;;5012538;28;20219;-72
2024/01/28 10:33:51;;;;;;;6.00;4.03;;;7.70;63.60;9.60;102627.00;;;;5006141;28;20232;-72
2024/01/28 10:36:19;;;;;;;6.90;4.20;;;7.80;63.60;9.70;102634.00;;;;5000542;28;20279;-73
2024/01/28 10:38:50;;;;;;;7.15;4.13;;;7.80;63.50;9.70;102634.00;;;;4999370;28;20212;-73
2024/01/28 10:41:19;;;;;;;5.25;4.15;;;7.90;63.50;9.80;102638.00;;;;4993740;28;20584;-73
2024/01/28 10:43:58;;;;;;;5.68;4.00;;;7.90;63.50;9.80;102630.00;;;;4999643;28;20205;-73
2024/01/28 10:46:38;;;;;;;5.50;4.32;;;8.00;63.40;9.80;102629.00;;;;5009036;28;20250;-73
2024/01/28 10:49:09;;;;;;;7.97;3.80;;;8.10;63.30;9.90;102622.00;;;;5013008;28;20668;-72
2024/01/28 10:51:41;;;;;;;5.63;3.67;;;8.10;63.20;10.00;102622.00;;;;5010069;28;20276;-73
2024/01/28 10:54:09;;;;;;;5.55;3.72;;;8.20;63.10;10.00;102626.00;;;;5009872;28;20233;-72
2024/01/28 10:56:39;;;;;;;5.70;3.70;;;8.20;63.60;10.10;102613.00;;;;5011993;28;20220;-72
2024/01/28 10:59:09;;;;;;;4.80;3.75;;;8.30;63.00;10.10;102616.00;;;;5011503;28;20253;-72
2024/01/28 11:01:40;;;;;;;4.78;3.42;;;8.30;63.00;10.20;102615.00;;;;4992907;28;20190;-73
2024/01/28 11:04:08;;;;;;;4.85;3.58;;;8.40;63.00;10.20;102618.00;;;;5010373;28;20451;-72